• Join FlightAware (Why Join?)
  • Login
  • US Flag GB Flag 
13:35 EST


 

Airport Tracker/Info


-or-


 

Live Flight TrackerFlight Track Log ✈ AAR214 ✈ 10-Aug-2013 ✈ RKSI / ICN - KSFO

Flight Track Log - Related Links

Times and Time Zones

All times are in EDT time to prevent confusion due to time zone crossing. See the AAR214 flight status page for this flight to view local times or setup timezone preferences in your user account.

Time Position Orientation Groundspeed Altitude Reporting Facility
EDT Latitude Longitude Course Direction KTS MPH feet Rate Location/Type
05:04 37.4834 127.1383 90° East  Level FlightAware Approximate
05:05 37.4834 127.3145 90° East  Level FlightAware Approximate
05:05 37.2850 126.8530 79° East 327 376 9,200  Level FlightAware
05:06 37.5021 127.4885 79° East  Level FlightAware Approximate
05:06 37.2870 126.8940 86° East 327 376 9,200  Level FlightAware
05:06 37.2900 126.9380 85° East 327 376 9,200 -180 Level FlightAware
05:06 37.2940 126.9820 83° East 329 379 9,100 -120 Descending FlightAware
05:07 37.2990 127.0330 83° East 329 379 9,100 60 Level FlightAware
05:07 37.3030 127.0810 84° East 329 379 9,200 120 Climbing FlightAware
05:08 37.3060 127.1220 85° East 329 379 9,200 780 Level FlightAware
05:08 37.3240 127.1470 48° Northeast 331 381 9,700 2,280 Climbing FlightAware
05:09 37.3310 127.1570 49° Northeast 337 388 11,000 1,440 Climbing FlightAware
05:09 37.4030 127.2590 48° Northeast 376 433 11,500 1,020 Climbing FlightAware
05:10 37.4390 127.3100 48° Northeast 400 460 12,200 600 Climbing FlightAware
05:10 37.4800 127.3700 49° Northeast 400 460 12,200  Level FlightAware
05:11 37.5170 127.4240 49° Northeast 400 460 12,200  Level FlightAware
05:12 37.5550 127.4780 48° Northeast 400 460 12,200 720 Level FlightAware
05:14 37.5460 127.8257 78° East  Level FlightAware Approximate
05:15 37.5735 127.9984 79° East  Level FlightAware Approximate
05:16 37.6008 128.1712 77° East  Level FlightAware Approximate
05:17 37.6321 128.3430 77° East  Level FlightAware Approximate
05:18 37.6582 128.5157 81° East  Level FlightAware Approximate
05:19 37.6845 128.6878 72° East  Level FlightAware Approximate
05:20 37.6531 128.8440 122° Southeast  Level FlightAware Approximate
05:21 37.5785 128.9931 122° Southeast  Level FlightAware Approximate
05:22 37.5042 129.1421 122° Southeast  Level FlightAware Approximate
05:23 37.4296 129.2908 122° Southeast  Level FlightAware Approximate
05:24 37.3559 129.4401 121° Southeast  Level FlightAware Approximate
05:25 37.2831 129.5899 121° Southeast  Level FlightAware Approximate
05:26 37.2101 129.7394 121° Southeast  Level FlightAware Approximate
05:27 37.1369 129.8886 122° Southeast  Level FlightAware Approximate
05:28 37.0635 130.0376 122° Southeast  Level FlightAware Approximate
05:29 36.9900 130.1862 122° Southeast  Level FlightAware Approximate
05:30 36.9162 130.3346 122° Southeast  Level FlightAware Approximate
05:31 36.8423 130.4827 122° Southeast  Level FlightAware Approximate
05:32 36.7682 130.6305 122° Southeast  Level FlightAware Approximate
05:33 36.6937 130.7778 122° Southeast  Level FlightAware Approximate
05:34 36.6190 130.9249 122° Southeast  Level FlightAware Approximate
05:35 36.5441 131.0716 122° Southeast  Level FlightAware Approximate
05:36 36.4690 131.2181 122° Southeast  Level FlightAware Approximate
05:37 36.3937 131.3642 123° Southeast  Level FlightAware Approximate
05:38 36.3633 131.5277 92° East  Level FlightAware Approximate
05:39 36.3577 131.7009 92° East  Level FlightAware Approximate
05:40 36.3519 131.8742 92° East  Level FlightAware Approximate
05:40 36.5310 131.9780 92° East 505 581 34,100  Level FlightAware
05:41 36.5300 132.0710 91° East 505 581 34,200 60 Climbing FlightAware
05:41 36.5300 132.1600 90° East 505 581 34,200 300 Level FlightAware
05:43 36.5230 132.5380 91° East 505 581 35,000 240 Climbing FlightAware
05:44 36.5200 132.6780 91° East 504 580 35,000  Level FlightAware
05:44 36.5190 132.7520 91° East 504 580 35,000  Level FlightAware
05:45 36.5170 132.8650 91° East 504 580 35,000  Level FlightAware
05:46 36.5150 132.9750 91° East 503 579 35,000  Level FlightAware
05:46 36.5130 133.0750 91° East 503 579 35,000  Level FlightAware
05:47 36.5110 133.1760 91° East 503 579 35,000  Level FlightAware
05:47 36.5090 133.2630 92° East 505 581 35,000  Level FlightAware
05:48 36.5120 133.3790 88° East 505 581 35,000  Level FlightAware
05:49 36.5160 133.4810 87° East 506 582 35,000  Level FlightAware
05:49 36.5220 133.5810 86° East 504 580 35,000  Level FlightAware
05:50 36.5240 133.6150 86° East 503 579 35,000  Level FlightAware
05:50 36.5350 133.7860 85° East 504 580 35,000  Level FlightAware
05:51 36.5410 133.8780 85° East 506 582 35,000  Level FlightAware
05:52 36.5480 133.9900 86° East 508 585 35,000  Level FlightAware
05:52 36.5530 134.0870 86° East 510 587 35,000  Level FlightAware
05:53 36.5600 134.2080 86° East 511 588 35,000  Level FlightAware
05:53 36.5660 134.3080 86° East 512 589 35,000  Level FlightAware
05:54 36.5720 134.4260 86° East 514 592 35,000  Level FlightAware
05:55 36.5770 134.5130 86° East 514 592 35,000  Level FlightAware
05:55 36.5830 134.6180 86° East 512 589 35,000  Level FlightAware
05:56 36.5880 134.7190 86° East 511 588 35,000  Level FlightAware
05:56 36.5930 134.8300 87° East 510 587 35,000  Level FlightAware
05:57 36.5980 134.9270 86° East 510 587 35,000  Level FlightAware
05:57 36.6030 135.0270 86° East 510 587 35,000  Level FlightAware
05:58 36.6090 135.1390 86° East 510 587 35,000  Level FlightAware
05:59 36.6130 135.2330 87° East 509 586 35,000  Level FlightAware
05:59 36.6180 135.3360 87° East 508 585 35,000  Level FlightAware
06:00 36.6230 135.4380 86° East 506 582 35,000  Level FlightAware
06:00 36.6280 135.5520 87° East 506 582 35,000  Level FlightAware
06:01 36.6320 135.6390 87° East 505 581 35,000  Level FlightAware
06:02 36.6360 135.7420 87° East 502 578 35,000  Level FlightAware
06:02 36.6400 135.8390 87° East 501 577 35,000  Level FlightAware
06:03 36.6450 135.9410 86° East 500 575 35,000  Level FlightAware
06:03 36.6500 136.0700 87° East 499 574 35,000  Level FlightAware
06:04 36.6590 136.1860 84° East 499 574 35,000  Level FlightAware
06:05 36.6680 136.2870 84° East 500 575 35,000  Level FlightAware
06:05 36.6780 136.3910 83° East 500 575 35,000  Level FlightAware
06:06 36.6860 136.4760 83° East 501 577 35,000  Level FlightAware
06:06 36.6960 136.5770 83° East 501 577 35,000  Level FlightAware
06:07 36.7060 136.6840 83° East 501 577 35,000  Level FlightAware
06:08 36.7150 136.7810 83° East 502 578 35,000  Level FlightAware
06:08 36.7250 136.8920 84° East 503 579 35,000  Level FlightAware
06:09 36.7330 136.9780 83° East 503 579 35,000  Level FlightAware
06:09 36.7420 137.0740 83° East 503 579 35,000  Level FlightAware
06:10 36.7510 137.1800 84° East 503 579 35,000  Level FlightAware
06:11 36.7610 137.2920 84° East 502 578 35,000  Level FlightAware
06:11 36.7710 137.4080 84° East 502 578 35,000  Level FlightAware
06:12 36.7800 137.5120 84° East 502 578 35,000  Level FlightAware
06:12 36.7890 137.6120 84° East 503 579 35,000  Level FlightAware
06:13 36.7970 137.7120 84° East 503 579 35,000  Level FlightAware
06:14 36.8060 137.8120 84° East 502 578 35,000  Level FlightAware
06:14 36.8140 137.9140 84° East 502 578 35,000  Level FlightAware
06:15 36.8230 138.0260 84° East 501 577 35,000  Level FlightAware
06:15 36.8320 138.1290 84° East 501 577 35,000  Level FlightAware
06:16 36.8400 138.2280 84° East 501 577 35,000  Level FlightAware
06:17 36.8470 138.3260 85° East 500 575 35,000  Level FlightAware
06:17 36.8550 138.4230 84° East 499 574 35,000  Level FlightAware
06:18 36.8630 138.5290 85° East 500 575 35,000  Level FlightAware
06:18 36.8710 138.6300 84° East 500 575 35,000  Level FlightAware
06:19 36.8800 138.7410 84° East 501 577 35,000  Level FlightAware
06:19 36.8860 138.8310 85° East 501 577 35,000  Level FlightAware
06:20 36.8940 138.9320 84° East 501 577 35,000  Level FlightAware
06:21 36.9010 139.0280 85° East 501 577 35,000  Level FlightAware
06:21 36.9080 139.1320 85° East 501 577 35,000  Level FlightAware
06:22 36.9150 139.2250 85° East 501 577 35,000  Level FlightAware
06:23 36.9250 139.3690 85° East 500 575 35,000  Level FlightAware
06:23 36.9310 139.4590 85° East 500 575 35,000  Level FlightAware
06:24 36.9390 139.5630 84° East 500 575 35,000  Level FlightAware
06:24 36.9460 139.6700 85° East 499 574 35,000  Level FlightAware
06:25 36.9520 139.7570 85° East 500 575 35,000  Level FlightAware
06:26 36.9590 139.8700 86° East 500 575 35,000  Level FlightAware
06:26 36.9660 139.9750 85° East 500 575 35,000  Level FlightAware
06:27 36.9720 140.0650 85° East 501 577 35,000  Level FlightAware
06:27 36.9790 140.1710 85° East 502 578 35,000  Level FlightAware
06:28 36.9850 140.2730 86° East 502 578 35,000  Level FlightAware
06:28 36.9910 140.3660 85° East 502 578 35,000  Level FlightAware
06:29 36.9970 140.4710 86° East 504 580 35,000  Level FlightAware
06:30 37.0030 140.5740 86° East 505 581 35,000  Level FlightAware
06:30 37.0100 140.6780 85° East 505 581 35,000  Level FlightAware
06:31 37.0160 140.7860 86° East 506 582 35,000  Level FlightAware
06:31 37.0210 140.8770 86° East 506 582 35,000  Level FlightAware
06:32 37.0270 140.9810 86° East 507 583 35,000  Level FlightAware
06:32 37.0320 141.0770 86° East 507 583 35,000  Level FlightAware
06:33 37.0390 141.1940 86° East 508 585 35,000  Level FlightAware
06:34 37.0440 141.2860 86° East 507 583 35,000  Level FlightAware
06:34 37.0490 141.3920 87° East 508 585 35,000  Level FlightAware
06:35 37.0550 141.4900 86° East 508 585 35,000  Level FlightAware
06:36 37.0620 141.6280 86° East 509 586 35,000  Level FlightAware
06:36 37.0670 141.7400 87° East 509 586 35,000  Level FlightAware
06:37 37.0720 141.8420 86° East 507 583 35,000  Level FlightAware
06:37 37.0780 141.9590 86° East 507 583 35,000  Level FlightAware
06:38 37.0830 142.0620 86° East 507 583 35,000  Level FlightAware
06:39 37.0880 142.1640 86° East 507 583 35,000  Level FlightAware
06:39 37.0920 142.2510 87° East 506 582 35,000  Level FlightAware
06:40 37.0970 142.3820 87° East 506 582 35,000  Level FlightAware
06:41 37.1030 142.5030 86° East 507 583 35,000  Level FlightAware
06:41 37.1070 142.6050 87° East 507 583 35,000  Level FlightAware
06:42 37.1120 142.7200 87° East 505 581 35,000  Level FlightAware
06:42 37.1160 142.8210 87° East 505 581 35,000  Level FlightAware
06:43 37.1200 142.9230 87° East 504 580 35,000  Level FlightAware
06:44 37.1250 143.0550 87° East 504 580 35,000  Level FlightAware
06:44 37.1290 143.1390 87° East 504 580 35,000  Level FlightAware
06:45 37.1330 143.2410 87° East 504 580 35,000  Level FlightAware
06:45 37.1370 143.3590 88° East 504 580 35,000  Level FlightAware
06:46 37.1400 143.4480 88° East 503 579 35,000  Level FlightAware
06:47 37.1430 143.5440 88° East 503 579 35,000  Level FlightAware
06:47 37.1470 143.6650 88° East 503 579 35,000  Level FlightAware
06:48 37.1510 143.7680 87° East 503 579 35,000  Level FlightAware
06:48 37.1540 143.8550 87° East 503 579 35,000  Level FlightAware
06:49 37.1570 143.9710 88° East 503 579 35,000  Level FlightAware
06:50 37.1600 144.0730 88° East 503 579 35,000  Level FlightAware
06:50 37.1630 144.1600 87° East 504 580 35,000  Level FlightAware
06:51 37.1660 144.2760 88° East 503 579 35,000  Level FlightAware
06:51 37.1690 144.3930 88° East 502 578 35,000  Level FlightAware
06:52 37.1730 144.5050 87° East 503 579 35,000  Level FlightAware
06:53 37.1750 144.5940 88° East 501 577 35,000  Level FlightAware
06:53 37.1770 144.6900 88° East 501 577 35,000  Level FlightAware
06:54 37.1810 144.8270 88° East 501 577 35,000  Level FlightAware
06:54 37.1830 144.9140 88° East 501 577 35,000  Level FlightAware
06:55 37.1850 145.0140 89° East 501 577 35,000  Level FlightAware
06:56 37.1870 145.1060 88° East 501 577 35,000  Level FlightAware
06:56 37.1890 145.2130 89° East 500 575 35,000  Level FlightAware
06:57 37.1920 145.3660 89° East 500 575 35,000  Level FlightAware
06:58 37.1930 145.4550 89° East 500 575 35,000  Level FlightAware
06:58 37.1960 145.5970 88° East 499 574 35,000  Level FlightAware
06:59 37.2040 145.6540 80° East 496 571 35,000  Level FlightAware
06:59 37.2290 145.7300 68° East 492 566 35,000  Level FlightAware
07:00 37.2740 145.8190 58° Northeast 491 565 35,000  Level FlightAware
07:01 37.3240 145.9210 58° Northeast 491 565 35,000  Level FlightAware
07:01 37.3610 145.9950 58° Northeast 491 565 35,000  Level FlightAware
07:02 37.4000 146.0730 58° Northeast 491 565 35,000  Level FlightAware
07:02 37.4370 146.1480 58° Northeast 491 565 35,000  Level FlightAware
07:03 37.4750 146.2240 58° Northeast 491 565 35,000  Level FlightAware
07:04 37.5110 146.2980 58° Northeast 491 565 35,000  Level FlightAware
07:04 37.5480 146.3720 58° Northeast 491 565 35,000  Level FlightAware
07:05 37.5860 146.4490 58° Northeast 491 565 35,000  Level FlightAware
07:05 37.6210 146.5190 58° Northeast 491 565 35,000  Level FlightAware
07:06 37.6580 146.5940 58° Northeast 491 565 35,000  Level FlightAware
07:07 37.6960 146.6700 58° Northeast 491 565 35,000  Level FlightAware
07:07 37.7320 146.7450 59° Northeast 491 565 35,000  Level FlightAware
07:08 37.7690 146.8190 58° Northeast 491 565 35,000  Level FlightAware
07:08 37.8060 146.8940 58° Northeast 491 565 35,000  Level FlightAware
07:09 37.8430 146.9690 58° Northeast 491 565 35,000  Level FlightAware
07:10 37.8800 147.0430 58° Northeast 491 565 35,000 -60 Level FlightAware
07:12 38.0087 147.3270 60° Northeast  Level FlightAware Approximate
07:13 38.0779 147.4810 60° Northeast  Level FlightAware Approximate
07:14 38.1470 147.6352 60° Northeast  Level FlightAware Approximate
07:15 38.2175 147.7886 59° Northeast  Level FlightAware Approximate
07:16 38.2896 147.9409 59° Northeast  Level FlightAware Approximate
07:17 38.3615 148.0935 59° Northeast  Level FlightAware Approximate
07:18 38.4332 148.2464 59° Northeast  Level FlightAware Approximate
07:19 38.5047 148.3996 59° Northeast  Level FlightAware Approximate
07:20 38.5760 148.5530 59° Northeast  Level FlightAware Approximate
07:21 38.6471 148.7068 59° Northeast  Level FlightAware Approximate
07:22 38.7179 148.8609 59° Northeast  Level FlightAware Approximate
07:23 38.7886 149.0153 60° Northeast  Level FlightAware Approximate
07:24 38.8591 149.1700 60° Northeast  Level FlightAware Approximate
07:25 38.9294 149.3250 60° Northeast  Level FlightAware Approximate
07:26 38.9995 149.4804 60° Northeast  Level FlightAware Approximate
07:27 39.0693 149.6360 60° Northeast  Level FlightAware Approximate
07:28 39.1390 149.7919 60° Northeast  Level FlightAware Approximate
07:29 39.1968 149.9557 66° East  Level FlightAware Approximate
07:30 39.2523 150.1211 67° East  Level FlightAware Approximate
07:31 39.3075 150.2868 67° East  Level FlightAware Approximate
07:32 39.3624 150.4527 67° East  Level FlightAware Approximate
07:33 39.4166 150.6193 68° East  Level FlightAware Approximate
07:34 39.4691 150.7868 68° East  Level FlightAware Approximate
07:35 39.5215 150.9545 68° East  Level FlightAware Approximate
07:36 39.5735 151.1225 68° East  Level FlightAware Approximate
07:37 39.6254 151.2908 68° East  Level FlightAware Approximate
07:38 39.6791 151.4582 67° East  Level FlightAware Approximate
07:39 39.7329 151.6256 67° East  Level FlightAware Approximate
07:40 39.7865 151.7934 67° East  Level FlightAware Approximate
07:41 39.8398 151.9613 67° East  Level FlightAware Approximate
07:42 39.8929 152.1296 68° East  Level FlightAware Approximate
07:43 39.9458 152.2981 68° East  Level FlightAware Approximate
07:44 39.9984 152.4668 68° East  Level FlightAware Approximate
07:45 40.0508 152.6358 68° East  Level FlightAware Approximate
07:46 40.1029 152.8051 68° East  Level FlightAware Approximate
07:47 40.1544 152.9749 68° East  Level FlightAware Approximate
07:48 40.2054 153.1450 68° East  Level FlightAware Approximate
07:49 40.2562 153.3153 69° East  Level FlightAware Approximate
07:50 40.3068 153.4859 69° East  Level FlightAware Approximate
07:51 40.3571 153.6568 69° East  Level FlightAware Approximate
07:52 40.4071 153.8279 69° East  Level FlightAware Approximate
07:53 40.4569 153.9993 69° East  Level FlightAware Approximate
07:54 40.5065 154.1709 69° East  Level FlightAware Approximate
07:55 40.5557 154.3428 69° East  Level FlightAware Approximate
07:56 40.6048 154.5149 69° East  Level FlightAware Approximate
07:57 40.6535 154.6873 69° East  Level FlightAware Approximate
07:58 40.7021 154.8599 70° East  Level FlightAware Approximate
07:59 40.7503 155.0328 70° East  Level FlightAware Approximate
08:00 40.7983 155.2059 70° East  Level FlightAware Approximate
08:01 40.8461 155.3793 70° East  Level FlightAware Approximate
08:02 40.8936 155.5530 70° East  Level FlightAware Approximate
08:03 40.9408 155.7268 70° East  Level FlightAware Approximate
08:04 40.9878 155.9010 70° East  Level FlightAware Approximate
08:05 41.0345 156.0753 70° East  Level FlightAware Approximate
08:06 41.0809 156.2500 71° East  Level FlightAware Approximate
08:07 41.1271 156.4249 71° East  Level FlightAware Approximate
08:08 41.1730 156.6000 71° East  Level FlightAware Approximate
08:09 41.2186 156.7753 71° East  Level FlightAware Approximate
08:10 41.2640 156.9509 71° East  Level FlightAware Approximate
08:11 41.3091 157.1268 71° East  Level FlightAware Approximate
08:12 41.3539 157.3029 71° East  Level FlightAware Approximate
08:13 41.3985 157.4792 71° East  Level FlightAware Approximate
08:14 41.4428 157.6558 71° East  Level FlightAware Approximate
08:15 41.4868 157.8326 72° East  Level FlightAware Approximate
08:16 41.5306 158.0097 72° East  Level FlightAware Approximate
08:17 41.5741 158.1870 72° East  Level FlightAware Approximate
08:18 41.6173 158.3645 72° East  Level FlightAware Approximate
08:19 41.6603 158.5423 72° East  Level FlightAware Approximate
08:20 41.7029 158.7203 72° East  Level FlightAware Approximate
08:21 41.7453 158.8985 72° East  Level FlightAware Approximate
08:22 41.7874 159.0770 72° East  Level FlightAware Approximate
08:23 41.8293 159.2557 73° East  Level FlightAware Approximate
08:24 41.8708 159.4346 73° East  Level FlightAware Approximate
08:25 41.9121 159.6138 73° East  Level FlightAware Approximate
08:26 41.9532 159.7932 73° East  Level FlightAware Approximate
08:27 41.9939 159.9729 73° East  Level FlightAware Approximate
08:28 42.0514 160.1438 64° Northeast  Level FlightAware Approximate
08:29 42.1117 160.3135 64° Northeast  Level FlightAware Approximate
08:30 42.1717 160.4835 64° Northeast  Level FlightAware Approximate
08:31 42.2315 160.6539 65° Northeast  Level FlightAware Approximate
08:32 42.2910 160.8245 65° Northeast  Level FlightAware Approximate
08:33 42.3503 160.9955 65° Northeast  Level FlightAware Approximate
08:34 42.4093 161.1668 65° Northeast  Level FlightAware Approximate
08:35 42.4681 161.3384 65° Northeast  Level FlightAware Approximate
08:36 42.5266 161.5103 65° Northeast  Level FlightAware Approximate
08:37 42.5849 161.6826 65° Northeast  Level FlightAware Approximate
08:38 42.6428 161.8552 65° Northeast  Level FlightAware Approximate
08:39 42.7006 162.0281 66° East  Level FlightAware Approximate
08:40 42.7581 162.2013 66° East  Level FlightAware Approximate
08:41 42.8153 162.3749 66° East  Level FlightAware Approximate
08:42 42.8722 162.5488 66° East  Level FlightAware Approximate
08:43 42.9289 162.7229 66° East  Level FlightAware Approximate
08:44 42.9853 162.8974 66° East  Level FlightAware Approximate
08:45 43.0415 163.0723 66° East  Level FlightAware Approximate
08:46 43.0974 163.2474 66° East  Level FlightAware Approximate
08:47 43.1530 163.4229 66° East  Level FlightAware Approximate
08:48 43.2084 163.5987 67° East  Level FlightAware Approximate
08:49 43.2634 163.7748 67° East  Level FlightAware Approximate
08:50 43.3182 163.9512 67° East  Level FlightAware Approximate
08:51 43.3728 164.1279 67° East  Level FlightAware Approximate
08:51 43.5333 164.6000 67° East 532 612 34,000  Level Oakland Oceanic (ODAPS)
08:52 43.4271 164.3050 67° East  Level FlightAware Approximate
08:53 43.4811 164.4824 67° East  Level FlightAware Approximate
08:54 43.5350 164.6599 67° East  Level FlightAware Approximate
08:55 43.5890 164.8376 67° East  Level FlightAware Approximate
08:56 43.6427 165.0156 67° East  Level FlightAware Approximate
08:57 43.6962 165.1940 67° East  Level FlightAware Approximate
08:58 43.9236 165.9246 68° East 532 612 34,000  Level FlightAware Transoceanic
08:59 43.9782 166.1152 68° East 532 612 34,000  Level FlightAware Transoceanic
09:00 44.0323 166.3062 69° East 532 612 34,000  Level FlightAware Transoceanic
09:01 44.0862 166.4975 69° East 532 612 34,000  Level FlightAware Transoceanic
09:02 44.1398 166.6892 69° East 532 612 34,000  Level FlightAware Transoceanic
09:03 44.1930 166.8812 69° East 532 612 34,000  Level FlightAware Transoceanic
09:04 44.2459 167.0736 69° East 532 612 34,000  Level FlightAware Transoceanic
09:04 44.2333 167.0500 69° East 536 617 34,000  Level Oakland Oceanic (ODAPS)
09:05 44.2985 167.2663 69° East 532 612 34,000  Level FlightAware Transoceanic
09:06 44.3507 167.4594 69° East 532 612 34,000  Level FlightAware Transoceanic
09:07 44.4027 167.6528 69° East 532 612 34,000  Level FlightAware Transoceanic
09:08 44.4543 167.8465 70° East 532 612 34,000  Level FlightAware Transoceanic
09:09 44.5055 168.0406 70° East 532 612 34,000  Level FlightAware Transoceanic
09:10 44.5491 168.2206 70° East 536 617 34,000  Level FlightAware Transoceanic
09:11 44.6006 168.4170 70° East 536 617 34,000  Level FlightAware Transoceanic
09:12 44.6517 168.6136 70° East 536 617 34,000  Level FlightAware Transoceanic
09:13 44.7025 168.8107 70° East 536 617 34,000  Level FlightAware Transoceanic
09:14 44.7529 169.0080 70° East 536 617 34,000  Level FlightAware Transoceanic
09:15 44.8030 169.2057 70° East 536 617 34,000  Level FlightAware Transoceanic
09:16 44.8528 169.4038 71° East 536 617 34,000  Level FlightAware Transoceanic
09:17 44.9022 169.6022 71° East 536 617 34,000  Level FlightAware Transoceanic
09:18 44.9513 169.8009 71° East 536 617 34,000 720 Level FlightAware Transoceanic
09:18 44.9500 169.8000 70° East 533 613 35,000  Climbing Oakland Oceanic (ODAPS)
09:19 45.0000 170.0000 70° East 536 617 34,000  Descending FlightAware Transoceanic
09:19 45.0000 170.0000 70° East 553 636 35,000  Climbing Oakland Oceanic (ODAPS)
09:20 45.0504 170.2006 71° East 536 617 34,000 -600 Descending FlightAware Transoceanic
09:21 45.1004 170.4016 71° East 536 617 34,000  Level FlightAware Transoceanic
09:22 45.1500 170.6029 71° East 536 617 34,000  Level FlightAware Transoceanic
09:23 45.1993 170.8046 71° East 536 617 34,000 480 Level FlightAware Transoceanic
09:24 45.2483 171.0066 71° East 533 613 35,000 480 Climbing FlightAware Transoceanic
09:25 45.3030 171.2349 71° East 553 636 35,000  Level FlightAware Transoceanic
09:26 45.3522 171.4420 71° East 553 636 35,000  Level FlightAware Transoceanic
09:27 45.4011 171.6494 72° East 553 636 35,000  Level FlightAware Transoceanic
09:28 45.4495 171.8572 72° East 553 636 35,000  Level FlightAware Transoceanic
09:29 45.4976 172.0653 72° East 553 636 35,000  Level FlightAware Transoceanic
09:30 45.5453 172.2738 72° East 553 636 35,000  Level FlightAware Transoceanic
09:31 45.5926 172.4827 72° East 553 636 35,000  Level FlightAware Transoceanic
09:32 45.6396 172.6919 72° East 553 636 35,000 420 Level FlightAware Transoceanic
09:32 45.6167 172.5833 72° East 551 634 35,500  Climbing Oakland Oceanic (ODAPS)
09:33 45.6861 172.9015 72° East 553 636 35,000 -300 Descending FlightAware Transoceanic
09:34 45.7323 173.1114 73° East 553 636 35,000  Level FlightAware Transoceanic
09:35 45.7781 173.3216 73° East 553 636 35,000  Level FlightAware Transoceanic
09:36 45.8235 173.5322 73° East 553 636 35,000  Level FlightAware Transoceanic
09:37 45.8685 173.7432 73° East 553 636 35,000 240 Level FlightAware Transoceanic
09:38 45.8875 173.8274 73° East 551 634 35,500 240 Climbing FlightAware Transoceanic
09:39 45.9313 174.0359 73° East 551 634 35,500  Level FlightAware Transoceanic
09:40 45.9748 174.2448 73° East 551 634 35,500  Level FlightAware Transoceanic
09:41 46.0178 174.4539 74° East 551 634 35,500  Level FlightAware Transoceanic
09:42 46.0605 174.6634 74° East 551 634 35,500  Level FlightAware Transoceanic
09:43 46.1028 174.8732 74° East 551 634 35,500  Level FlightAware Transoceanic
09:44 46.1447 175.0834 74° East 551 634 35,500  Level FlightAware Transoceanic
09:45 46.1862 175.2938 74° East 551 634 35,500  Level FlightAware Transoceanic
09:46 46.2274 175.5046 74° East 551 634 35,500 1,500 Level FlightAware Transoceanic
09:46 46.2167 175.4500 74° East 563 648 37,000  Climbing Oakland Oceanic (ODAPS)
09:47 46.2681 175.7157 74° East 551 634 35,500 -780 Descending FlightAware Transoceanic
09:48 46.3085 175.9271 75° East 551 634 35,500  Level FlightAware Transoceanic
09:49 46.3485 176.1388 75° East 551 634 35,500  Level FlightAware Transoceanic
09:50 46.3880 176.3508 75° East 551 634 35,500  Level FlightAware Transoceanic
09:51 46.4272 176.5631 75° East 551 634 35,500 720 Level FlightAware Transoceanic
09:52 46.4588 176.7364 75° East 563 648 37,000 720 Climbing FlightAware Transoceanic
09:53 46.4978 176.9519 75° East 563 648 37,000  Level FlightAware Transoceanic
09:54 46.5363 177.1677 76° East 563 648 37,000  Level FlightAware Transoceanic
09:55 46.5744 177.3838 76° East 563 648 37,000  Level FlightAware Transoceanic
09:56 46.6122 177.6002 76° East 563 648 37,000  Level FlightAware Transoceanic
09:57 46.6495 177.8169 76° East 563 648 37,000  Level FlightAware Transoceanic
09:58 46.6864 178.0339 76° East 563 648 37,000  Level FlightAware Transoceanic
09:59 46.7229 178.2513 76° East 563 648 37,000  Level FlightAware Transoceanic
09:59 46.7667 178.4667 77° East 564 649 37,000  Level Oakland Oceanic (ODAPS)
10:00 46.7590 178.4689 76° East 563 648 37,000  Level FlightAware Transoceanic
10:01 46.7947 178.6867 77° East 563 648 37,000  Level FlightAware Transoceanic
10:02 46.8299 178.9049 77° East 563 648 37,000  Level FlightAware Transoceanic
10:03 46.8648 179.1234 77° East 563 648 37,000  Level FlightAware Transoceanic
10:04 46.8992 179.3421 77° East 563 648 37,000  Level FlightAware Transoceanic
10:05 46.9332 179.5611 77° East 563 648 37,000  Level FlightAware Transoceanic
10:06 46.9679 179.7801 78° East 564 649 37,000  Level FlightAware Transoceanic
10:06 47.0000 180.0000 86° East 574 661 37,000  Level Oakland Oceanic (ODAPS)
10:07 47.0000 -180.0000 86° East 564 649 37,000  Level FlightAware Transoceanic
10:08 47.0099 -179.7680 87° East 564 649 37,000  Level FlightAware Transoceanic
10:09 47.0193 -179.5360 87° East 564 649 37,000  Level FlightAware Transoceanic
10:10 47.0283 -179.3038 87° East 564 649 37,000  Level FlightAware Transoceanic
10:11 47.0367 -179.0716 87° East 564 649 37,000  Level FlightAware Transoceanic
10:12 47.0447 -178.8394 87° East 564 649 37,000  Level FlightAware Transoceanic
10:13 47.0523 -178.6070 87° East 574 661 37,000  Level FlightAware Transoceanic
10:13 47.0667 -178.4000 88° East 577 664 37,000  Level Oakland Oceanic (ODAPS)
10:14 47.0593 -178.3746 88° East 574 661 37,000  Level FlightAware Transoceanic
10:15 47.0659 -178.1421 88° East 574 661 37,000  Level FlightAware Transoceanic
10:16 47.0721 -177.9096 88° East 574 661 37,000  Level FlightAware Transoceanic
10:17 47.0777 -177.6770 88° East 574 661 37,000  Level FlightAware Transoceanic
10:18 47.0829 -177.4444 88° East 574 661 37,000  Level FlightAware Transoceanic
10:19 47.0877 -177.2117 88° East 574 661 37,000  Level FlightAware Transoceanic
10:20 47.0989 -176.9600 89° East 577 664 37,000  Level FlightAware Transoceanic
10:21 47.1025 -176.7199 89° East 577 664 37,000  Level FlightAware Transoceanic
10:22 47.1056 -176.4797 89° East 577 664 37,000  Level FlightAware Transoceanic
10:23 47.1082 -176.2395 89° East 577 664 37,000  Level FlightAware Transoceanic
10:24 47.1104 -175.9993 89° East 577 664 37,000  Level FlightAware Transoceanic
10:25 47.1120 -175.7590 90° East 577 664 37,000  Level FlightAware Transoceanic
10:26 47.1131 -175.5188 90° East 577 664 37,000  Level FlightAware Transoceanic
10:27 47.1137 -175.2785 90° East 577 664 37,000  Level FlightAware Transoceanic
10:27 47.1167 -175.1833 90° East 581 669 37,000  Level Oakland Oceanic (ODAPS)
10:28 47.1138 -175.0383 90° East 577 664 37,000  Level FlightAware Transoceanic
10:29 47.1134 -174.7980 90° East 577 664 37,000  Level FlightAware Transoceanic
10:30 47.1125 -174.5577 90° East 577 664 37,000  Level FlightAware Transoceanic
10:31 47.1111 -174.3175 91° East 577 664 37,000  Level FlightAware Transoceanic
10:32 47.1091 -174.0773 91° East 577 664 37,000  Level FlightAware Transoceanic
10:33 47.1081 -173.7678 91° East 581 669 37,000  Level FlightAware Transoceanic
10:34 47.1049 -173.5319 91° East 581 669 37,000  Level FlightAware Transoceanic
10:35 47.1013 -173.2961 91° East 581 669 37,000  Level FlightAware Transoceanic
10:36 47.0972 -173.0603 92° East 581 669 37,000  Level FlightAware Transoceanic
10:37 47.0926 -172.8245 92° East 581 669 37,000  Level FlightAware Transoceanic
10:38 47.0876 -172.5888 92° East 581 669 37,000  Level FlightAware Transoceanic
10:39 47.0820 -172.3532 92° East 581 669 37,000  Level FlightAware Transoceanic
10:40 47.0760 -172.1176 92° East 581 669 37,000  Level FlightAware Transoceanic
10:41 47.0695 -171.8820 92° East 581 669 37,000  Level FlightAware Transoceanic
10:41 47.0667 -171.9167 92° East 584 672 37,000  Level Oakland Oceanic (ODAPS)
10:42 47.0625 -171.6465 93° East 581 669 37,000  Level FlightAware Transoceanic
10:43 47.0550 -171.4111 93° East 581 669 37,000  Level FlightAware Transoceanic
10:44 47.0470 -171.1757 93° East 581 669 37,000  Level FlightAware Transoceanic
10:45 47.0386 -170.9404 93° East 581 669 37,000  Level FlightAware Transoceanic
10:46 47.0297 -170.7052 93° East 581 669 37,000  Level FlightAware Transoceanic
10:47 47.0197 -170.4787 93° East 584 672 37,000  Level FlightAware Transoceanic
10:48 47.0101 -170.2393 93° East 584 672 37,000  Level FlightAware Transoceanic
10:49 47.0000 -170.0000 86° East 584 672 37,000  Level FlightAware Transoceanic
10:49 47.0000 -170.0000 86° East 570 656 37,000  Level Oakland Oceanic (ODAPS)
10:50 47.0095 -169.7783 87° East 584 672 37,000  Level FlightAware Transoceanic
10:51 47.0185 -169.5566 87° East 584 672 37,000  Level FlightAware Transoceanic
10:52 47.0271 -169.3348 87° East 584 672 37,000  Level FlightAware Transoceanic
10:53 47.0353 -169.1129 87° East 584 672 37,000  Level FlightAware Transoceanic
10:54 47.0430 -168.8910 87° East 584 672 37,000  Level FlightAware Transoceanic
10:55 47.0447 -168.8394 87° East 570 656 37,000  Level FlightAware Transoceanic
10:55 47.0500 -168.6500 87° East 571 657 37,000  Level Oakland Oceanic (ODAPS)
10:56 47.0523 -168.6070 87° East 570 656 37,000  Level FlightAware Transoceanic
10:57 47.0593 -168.3746 88° East 570 656 37,000  Level FlightAware Transoceanic
10:58 47.0659 -168.1421 88° East 570 656 37,000  Level FlightAware Transoceanic
10:59 47.0721 -167.9096 88° East 570 656 37,000  Level FlightAware Transoceanic
11:00 47.0777 -167.6770 88° East 570 656 37,000  Level FlightAware Transoceanic
11:01 47.0854 -167.2847 88° East 571 657 37,000  Level FlightAware Transoceanic
11:02 47.0898 -167.0570 88° East 571 657 37,000  Level FlightAware Transoceanic
11:03 47.0937 -166.8293 89° East 571 657 37,000  Level FlightAware Transoceanic
11:04 47.0971 -166.6015 89° East 571 657 37,000  Level FlightAware Transoceanic
11:05 47.1001 -166.3737 89° East 571 657 37,000  Level FlightAware Transoceanic
11:06 47.1026 -166.1459 89° East 571 657 37,000  Level FlightAware Transoceanic
11:07 47.1046 -165.9181 89° East 571 657 37,000  Level FlightAware Transoceanic
11:08 47.1063 -165.6902 89° East 571 657 37,000  Level FlightAware Transoceanic
11:09 47.1074 -165.4624 90° East 571 657 37,000  Level FlightAware Transoceanic
11:09 47.1167 -165.3833 90° East 568 654 37,000  Level Oakland Oceanic (ODAPS)
11:10 47.1081 -165.2345 90° East 571 657 37,000  Level FlightAware Transoceanic
11:11 47.1084 -165.0066 90° East 571 657 37,000  Level FlightAware Transoceanic
11:12 47.1082 -164.7787 90° East 571 657 37,000  Level FlightAware Transoceanic
11:13 47.1076 -164.5508 90° East 571 657 37,000  Level FlightAware Transoceanic
11:14 47.1065 -164.3230 90° East 571 657 37,000  Level FlightAware Transoceanic
11:15 47.1106 -163.9771 91° East 568 654 37,000  Level FlightAware Transoceanic
11:16 47.1079 -163.7428 91° East 568 654 37,000  Level FlightAware Transoceanic
11:17 47.1047 -163.5085 91° East 568 654 37,000  Level FlightAware Transoceanic
11:18 47.1011 -163.2742 91° East 568 654 37,000  Level FlightAware Transoceanic
11:19 47.0970 -163.0400 92° East 568 654 37,000  Level FlightAware Transoceanic
11:20 47.0924 -162.8058 92° East 568 654 37,000  Level FlightAware Transoceanic
11:21 47.0873 -162.5717 92° East 568 654 37,000  Level FlightAware Transoceanic
11:22 47.0817 -162.3376 92° East 568 654 37,000  Level FlightAware Transoceanic
11:23 47.0757 -162.1035 92° East 568 654 37,000  Level FlightAware Transoceanic
11:24 47.0692 -161.8695 92° East 568 654 37,000  Level FlightAware Transoceanic
11:25 47.0622 -161.6356 93° East 568 654 37,000  Level FlightAware Transoceanic
11:26 47.0547 -161.4017 93° East 568 654 37,000  Level FlightAware Transoceanic
11:27 47.0468 -161.1679 93° East 568 654 37,000  Level FlightAware Transoceanic
11:28 47.0384 -160.9341 93° East 568 654 37,000  Level FlightAware Transoceanic
11:29 47.0295 -160.7005 93° East 568 654 37,000  Level FlightAware Transoceanic
11:30 47.0201 -160.4669 93° East 568 654 37,000  Level FlightAware Transoceanic
11:31 47.0103 -160.2334 94° East 568 654 37,000  Level FlightAware Transoceanic
11:32 47.0000 -160.0000 95° East 568 654 37,000  Level FlightAware Transoceanic
11:33 46.9882 -159.7884 95° East 568 654 37,000 540 Level FlightAware Transoceanic
11:33 47.0000 -160.0000 95° East 527 606 38,000  Climbing Oakland Oceanic (ODAPS)
11:34 46.9759 -159.5769 95° East 568 654 37,000 -780 Descending FlightAware Transoceanic
11:35 46.9633 -159.3655 95° East 568 654 37,000  Level FlightAware Transoceanic
11:36 46.9503 -159.1542 95° East 568 654 37,000 480 Level FlightAware Transoceanic
11:36 46.9667 -159.3000 95° East 523 602 38,000  Climbing Oakland Oceanic (ODAPS)
11:37 46.9369 -158.9430 95° East 568 654 37,000 -1,020 Descending FlightAware Transoceanic
11:38 46.9231 -158.7319 96° East 568 654 37,000  Level FlightAware Transoceanic
11:39 46.9089 -158.5209 96° East 568 654 37,000 480 Level FlightAware Transoceanic
11:40 46.9213 -158.7050 96° East 527 606 38,000 480 Climbing FlightAware Transoceanic
11:41 46.9068 -158.4895 96° East 527 606 38,000  Level FlightAware Transoceanic
11:42 46.8918 -158.2742 96° East 527 606 38,000  Level FlightAware Transoceanic
11:43 46.8817 -158.0426 96° East 523 602 38,000  Level FlightAware Transoceanic
11:44 46.8662 -157.8334 96° East 523 602 38,000  Level FlightAware Transoceanic
11:45 46.8503 -157.6243 96° East 523 602 38,000  Level FlightAware Transoceanic
11:46 46.8341 -157.4154 97° East 523 602 38,000  Level FlightAware Transoceanic
11:47 46.8175 -157.2066 97° East 523 602 38,000  Level FlightAware Transoceanic
11:48 46.8004 -156.9980 97° East 523 602 38,000  Level FlightAware Transoceanic
11:49 46.7830 -156.7894 97° East 523 602 38,000  Level FlightAware Transoceanic
11:50 46.7653 -156.5810 97° East 523 602 38,000  Level FlightAware Transoceanic
11:50 46.7333 -156.3500 97° East 517 595 38,000  Level Oakland Oceanic (ODAPS)
11:51 46.7471 -156.3728 97° East 523 602 38,000  Level FlightAware Transoceanic
11:52 46.7286 -156.1647 97° East 523 602 38,000  Level FlightAware Transoceanic
11:53 46.7097 -155.9567 98° East 523 602 38,000  Level FlightAware Transoceanic
11:54 46.6904 -155.7489 98° East 523 602 38,000  Level FlightAware Transoceanic
11:55 46.6707 -155.5412 98° East 523 602 38,000  Level FlightAware Transoceanic
11:56 46.6507 -155.3337 98° East 523 602 38,000  Level FlightAware Transoceanic
11:57 46.6190 -155.1082 98° East 517 595 38,000  Level FlightAware Transoceanic
11:58 46.5986 -154.9018 98° East 517 595 38,000  Level FlightAware Transoceanic
11:59 46.5779 -154.6955 98° East 517 595 38,000  Level FlightAware Transoceanic
12:00 46.5568 -154.4894 99° East 517 595 38,000  Level FlightAware Transoceanic
12:01 46.5353 -154.2834 99° East 517 595 38,000  Level FlightAware Transoceanic
12:02 46.5135 -154.0777 99° East 517 595 38,000  Level FlightAware Transoceanic
12:03 46.4913 -153.8720 99° East 517 595 38,000  Level FlightAware Transoceanic
12:04 46.4687 -153.6666 99° East 517 595 38,000  Level FlightAware Transoceanic
12:04 46.4500 -153.5000 99° East 518 596 38,000  Level Oakland Oceanic (ODAPS)
12:05 46.4457 -153.4613 99° East 517 595 38,000  Level FlightAware Transoceanic
12:06 46.4224 -153.2562 99° East 517 595 38,000  Level FlightAware Transoceanic
12:07 46.3987 -153.0512 100° East 517 595 38,000  Level FlightAware Transoceanic
12:08 46.3747 -152.8465 100° East 517 595 38,000  Level FlightAware Transoceanic
12:09 46.3503 -152.6419 100° East 517 595 38,000  Level FlightAware Transoceanic
12:10 46.3255 -152.4375 100° East 517 595 38,000  Level FlightAware Transoceanic
12:11 46.3034 -152.2582 100° East 518 596 38,000  Level FlightAware Transoceanic
12:12 46.2776 -152.0519 100° East 518 596 38,000  Level FlightAware Transoceanic
12:13 46.2515 -151.8458 100° East 518 596 38,000  Level FlightAware Transoceanic
12:14 46.2251 -151.6399 101° East 518 596 38,000  Level FlightAware Transoceanic
12:15 46.1982 -151.4342 101° East 518 596 38,000  Level FlightAware Transoceanic
12:16 46.1710 -151.2287 101° East 518 596 38,000  Level FlightAware Transoceanic
12:17 46.1434 -151.0234 101° East 518 596 38,000  Level FlightAware Transoceanic
12:18 46.1155 -150.8183 101° East 518 596 38,000  Level FlightAware Transoceanic
12:18 46.1000 -150.6833 102° East 517 595 38,000  Level Oakland Oceanic (ODAPS)
12:19 46.0872 -150.6134 101° East 518 596 38,000  Level FlightAware Transoceanic
12:20 46.0585 -150.4087 101° East 518 596 38,000  Level FlightAware Transoceanic
12:21 46.0294 -150.2043 102° East 518 596 38,000  Level FlightAware Transoceanic
12:22 46.0000 -150.0000 102° East 518 596 38,000  Level FlightAware Transoceanic
12:22 46.0000 -150.0000 102° East 507 583 38,000  Level Oakland Oceanic (ODAPS)
12:23 45.9700 -149.8014 102° East 518 596 38,000  Level FlightAware Transoceanic
12:24 45.9396 -149.6031 102° East 517 595 38,000  Level FlightAware Transoceanic
12:25 45.9088 -149.4050 103° East 517 595 38,000  Level FlightAware Transoceanic
12:26 45.8778 -149.2070 103° East 517 595 38,000  Level FlightAware Transoceanic
12:27 45.8463 -149.0094 103° East 517 595 38,000  Level FlightAware Transoceanic
12:28 45.8146 -148.8119 103° East 507 583 38,000  Level FlightAware Transoceanic
12:29 45.7825 -148.6147 103° East 507 583 38,000  Level FlightAware Transoceanic
12:30 45.7501 -148.4176 103° East 507 583 38,000  Level FlightAware Transoceanic
12:31 45.7173 -148.2209 103° East 507 583 38,000  Level FlightAware Transoceanic
12:32 45.6842 -148.0243 104° East 507 583 38,000  Level FlightAware Transoceanic
12:32 45.6667 -147.9500 104° East 498 573 38,000  Level Oakland Oceanic (ODAPS)
12:33 45.6507 -147.8280 104° East 507 583 38,000  Level FlightAware Transoceanic
12:34 45.6170 -147.6319 104° East 507 583 38,000  Level FlightAware Transoceanic
12:35 45.5828 -147.4361 104° East 507 583 38,000  Level FlightAware Transoceanic
12:36 45.5484 -147.2405 104° East 507 583 38,000  Level FlightAware Transoceanic
12:37 45.5136 -147.0451 104° East 507 583 38,000  Level FlightAware Transoceanic
12:38 45.4677 -146.8138 104° East 498 573 38,000  Level FlightAware Transoceanic
12:39 45.4334 -146.6252 105° East 498 573 38,000  Level FlightAware Transoceanic
12:40 45.3989 -146.4369 105° East 498 573 38,000  Level FlightAware Transoceanic
12:41 45.3640 -146.2488 105° East 498 573 38,000  Level FlightAware Transoceanic
12:42 45.3288 -146.0609 105° East 498 573 38,000  Level FlightAware Transoceanic
12:43 45.2933 -145.8732 105° East 498 573 38,000  Level FlightAware Transoceanic
12:44 45.2575 -145.6858 105° East 498 573 38,000  Level FlightAware Transoceanic
12:45 45.2214 -145.4987 105° East 498 573 38,000  Level FlightAware Transoceanic
12:46 45.1850 -145.3117 106° East 498 573 38,000  Level FlightAware Transoceanic
12:46 45.1833 -145.3000 106° East 494 568 38,000  Level Oakland Oceanic (ODAPS)
12:47 45.1483 -145.1250 106° East 498 573 38,000  Level FlightAware Transoceanic
12:48 45.1113 -144.9386 106° East 498 573 38,000  Level FlightAware Transoceanic
12:49 45.0740 -144.7523 106° East 498 573 38,000  Level FlightAware Transoceanic
12:50 45.0364 -144.5664 106° East 498 573 38,000  Level FlightAware Transoceanic
12:51 44.9984 -144.3806 106° East 498 573 38,000  Level FlightAware Transoceanic
12:52 44.9588 -144.1859 106° East 494 568 38,000  Level FlightAware Transoceanic
12:53 44.9203 -144.0011 106° East 494 568 38,000  Level FlightAware Transoceanic
12:54 44.8815 -143.8166 107° East 494 568 38,000  Level FlightAware Transoceanic
12:55 44.8425 -143.6322 107° East 494 568 38,000  Level FlightAware Transoceanic
12:56 44.8031 -143.4482 107° East 494 568 38,000  Level FlightAware Transoceanic
12:57 44.7634 -143.2644 107° East 494 568 38,000  Level FlightAware Transoceanic
12:58 44.7235 -143.0808 107° East 494 568 38,000  Level FlightAware Transoceanic
12:59 44.6832 -142.8975 107° East 494 568 38,000  Level FlightAware Transoceanic
13:00 44.6427 -142.7144 107° East 494 568 38,000  Level FlightAware Transoceanic
13:00 44.6500 -142.7500 107° East 492 566 38,000  Level Oakland Oceanic (ODAPS)
13:01 44.6019 -142.5316 107° East 494 568 38,000  Level FlightAware Transoceanic
13:02 44.5607 -142.3491 108° East 494 568 38,000  Level FlightAware Transoceanic
13:03 44.5193 -142.1668 108° East 494 568 38,000  Level FlightAware Transoceanic
13:04 44.4776 -141.9848 108° East 494 568 38,000  Level FlightAware Transoceanic
13:05 44.4356 -141.8030 108° East 494 568 38,000  Level FlightAware Transoceanic
13:06 44.3979 -141.6427 108° East 492 566 38,000  Level FlightAware Transoceanic
13:07 44.3549 -141.4591 108° East 492 566 38,000  Level FlightAware Transoceanic
13:08 44.3115 -141.2757 108° East 492 566 38,000  Level FlightAware Transoceanic
13:09 44.2679 -141.0927 108° East 492 566 38,000  Level FlightAware Transoceanic
13:10 44.2240 -140.9099 109° East 492 566 38,000  Level FlightAware Transoceanic
13:11 44.1798 -140.7274 109° East 492 566 38,000  Level FlightAware Transoceanic
13:12 44.1353 -140.5451 109° East 492 566 38,000  Level FlightAware Transoceanic
13:13 44.0905 -140.3631 109° East 492 566 38,000  Level FlightAware Transoceanic
13:14 44.0454 -140.1814 109° East 492 566 38,000  Level FlightAware Transoceanic
13:14 44.0667 -140.2667 109° East 487 560 38,000  Level Oakland Oceanic (ODAPS)
13:15 44.0000 -140.0000 109° East 492 566 38,000  Level FlightAware Transoceanic
13:15 44.0000 -140.0000 109° East 488 562 38,000  Level Oakland Oceanic (ODAPS)
13:16 43.9566 -139.8226 109° East 492 566 38,000  Level FlightAware Transoceanic
13:17 43.9130 -139.6455 109° East 492 566 38,000  Level FlightAware Transoceanic
13:18 43.8691 -139.4687 109° East 492 566 38,000  Level FlightAware Transoceanic
13:19 43.8249 -139.2921 109° East 492 566 38,000  Level FlightAware Transoceanic
13:20 43.7842 -139.1305 109° East 487 560 38,000  Level FlightAware Transoceanic
13:21 43.7357 -138.9397 109° East 488 562 38,000  Level FlightAware Transoceanic
13:22 43.6907 -138.7639 110° East 488 562 38,000  Level FlightAware Transoceanic
13:23 43.6455 -138.5884 110° East 488 562 38,000  Level FlightAware Transoceanic
13:24 43.5999 -138.4131 110° East 488 562 38,000  Level FlightAware Transoceanic
13:25 43.5541 -138.2381 110° East 488 562 38,000  Level FlightAware Transoceanic
13:26 43.5080 -138.0634 110° East 488 562 38,000  Level FlightAware Transoceanic
13:27 43.4617 -137.8889 110° East 488 562 38,000  Level FlightAware Transoceanic
13:27 43.4500 -137.8667 110° East 482 555 38,000  Level Oakland Oceanic (ODAPS)
13:28 43.4151 -137.7147 110° East 488 562 38,000  Level FlightAware Transoceanic
13:29 43.3683 -137.5408 110° East 488 562 38,000  Level FlightAware Transoceanic
13:30 43.3211 -137.3672 111° Southeast 488 562 38,000  Level FlightAware Transoceanic
13:31 43.2737 -137.1938 111° Southeast 488 562 38,000  Level FlightAware Transoceanic
13:32 43.2261 -137.0206 111° Southeast 488 562 38,000  Level FlightAware Transoceanic
13:33 43.1782 -136.8478 111° Southeast 488 562 38,000 600 Level FlightAware Transoceanic
13:33 43.2000 -136.9167 111° Southeast 475 547 39,000  Climbing Oakland Oceanic (ODAPS)
13:34 43.1678 -136.8286 111° Southeast 482 555 38,000 -780 Descending FlightAware Transoceanic
13:35 43.1198 -136.6566 111° Southeast 482 555 38,000  Level FlightAware Transoceanic
13:36 43.0716 -136.4848 111° Southeast 482 555 38,000  Level FlightAware Transoceanic
13:37 43.0232 -136.3132 111° Southeast 482 555 38,000  Level FlightAware Transoceanic
13:38 42.9745 -136.1420 111° Southeast 482 555 38,000  Level FlightAware Transoceanic
13:39 42.9255 -135.9710 111° Southeast 482 555 38,000 480 Level FlightAware Transoceanic
13:40 42.8706 -135.7581 112° Southeast 475 547 39,000 480 Climbing FlightAware Transoceanic
13:41 42.8226 -135.5936 112° Southeast 475 547 39,000  Level FlightAware Transoceanic
13:41 42.8167 -135.5667 112° Southeast 478 550 39,000  Level Oakland Oceanic (ODAPS)
13:42 42.7744 -135.4294 112° Southeast 475 547 39,000  Level FlightAware Transoceanic
13:43 42.7259 -135.2654 112° Southeast 475 547 39,000  Level FlightAware Transoceanic
13:44 42.6772 -135.1017 112° Southeast 475 547 39,000  Level FlightAware Transoceanic
13:45 42.6283 -134.9383 112° Southeast 475 547 39,000  Level FlightAware Transoceanic
13:46 42.5791 -134.7751 112° Southeast 475 547 39,000  Level FlightAware Transoceanic
13:47 42.5297 -134.6121 112° Southeast 475 547 39,000  Level FlightAware Transoceanic
13:48 42.5159 -134.5614 112° Southeast 478 550 39,000  Level FlightAware Transoceanic
13:49 42.4649 -134.3947 113° Southeast 478 550 39,000  Level FlightAware Transoceanic
13:50 42.4137 -134.2284 113° Southeast 478 550 39,000  Level FlightAware Transoceanic
13:51 42.3622 -134.0623 113° Southeast 478 550 39,000  Level FlightAware Transoceanic
13:52 42.3105 -133.8966 113° Southeast 478 550 39,000  Level FlightAware Transoceanic
13:53 42.2586 -133.7310 113° Southeast 478 550 39,000  Level FlightAware Transoceanic
13:54 42.2064 -133.5658 113° Southeast 478 550 39,000  Level FlightAware Transoceanic
13:55 42.1540 -133.4008 113° Southeast 478 550 39,000  Level FlightAware Transoceanic
13:55 42.1167 -133.2833 113° Southeast 477 549 39,000  Level Oakland Oceanic (ODAPS)
13:56 42.1013 -133.2361 113° Southeast 478 550 39,000  Level FlightAware Transoceanic
13:57 42.0484 -133.0717 113° Southeast 478 550 39,000  Level FlightAware Transoceanic
13:58 41.9953 -132.9076 114° Southeast 478 550 39,000  Level FlightAware Transoceanic
13:59 41.9420 -132.7437 114° Southeast 478 550 39,000  Level FlightAware Transoceanic
14:00 41.8884 -132.5801 114° Southeast 478 550 39,000  Level FlightAware Transoceanic
14:01 41.8463 -132.4519 114° Southeast 477 549 39,000  Level FlightAware Transoceanic
14:02 41.7915 -132.2864 114° Southeast 477 549 39,000  Level FlightAware Transoceanic
14:03 41.7365 -132.1213 114° Southeast 477 549 39,000  Level FlightAware Transoceanic
14:04 41.6812 -131.9564 114° Southeast 477 549 39,000  Level FlightAware Transoceanic
14:05 41.6257 -131.7918 114° Southeast 477 549 39,000  Level FlightAware Transoceanic
14:06 41.5700 -131.6275 114° Southeast 477 549 39,000  Level FlightAware Transoceanic
14:07 41.5140 -131.4635 115° Southeast 477 549 39,000  Level FlightAware Transoceanic
14:08 41.4579 -131.2997 115° Southeast 477 549 39,000  Level FlightAware Transoceanic
14:09 41.4014 -131.1362 115° Southeast 477 549 39,000  Level FlightAware Transoceanic
14:09 41.3667 -131.0333 115° Southeast 478 550 39,000  Level Oakland Oceanic (ODAPS)
14:10 41.3448 -130.9731 115° Southeast 477 549 39,000  Level FlightAware Transoceanic
14:11 41.2879 -130.8102 115° Southeast 477 549 39,000  Level FlightAware Transoceanic
14:12 41.2308 -130.6476 115° Southeast 477 549 39,000  Level FlightAware Transoceanic
14:13 41.1734 -130.4853 115° Southeast 477 549 39,000  Level FlightAware Transoceanic
14:14 41.1158 -130.3232 115° Southeast 477 549 39,000  Level FlightAware Transoceanic
14:15 41.0529 -130.1469 115° Southeast 478 550 39,000  Level FlightAware Transoceanic
14:16 41.0000 -130.0000 109° East 478 550 39,000  Level FlightAware Transoceanic
14:16 41.0000 -130.0000 109° East 480 552 39,000  Level Oakland Oceanic (ODAPS)
14:17 40.9548 -129.8313 110° East 478 550 39,000  Level FlightAware Transoceanic
14:18 40.9094 -129.6629 110° East 478 550 39,000  Level FlightAware Transoceanic
14:19 40.8638 -129.4947 110° East 478 550 39,000  Level FlightAware Transoceanic
14:20 40.8178 -129.3268 110° East 478 550 39,000  Level FlightAware Transoceanic
14:21 40.7717 -129.1590 110° East 478 550 39,000  Level FlightAware Transoceanic
14:22 40.7253 -128.9915 110° East 480 552 39,000  Level FlightAware Transoceanic
14:23 40.6787 -128.8243 110° East 480 552 39,000  Level FlightAware Transoceanic
14:23 40.6667 -128.7833 110° East 488 562 39,000  Level Oakland Oceanic (ODAPS)
14:24 40.6318 -128.6573 110° East 480 552 39,000  Level FlightAware Transoceanic
14:25 40.5847 -128.4905 110° East 480 552 39,000  Level FlightAware Transoceanic
14:26 40.5373 -128.3239 111° Southeast 480 552 39,000  Level FlightAware Transoceanic
14:27 40.4898 -128.1576 111° Southeast 480 552 39,000  Level FlightAware Transoceanic
14:28 40.4419 -127.9915 111° Southeast 480 552 39,000  Level FlightAware Transoceanic
14:29 40.3882 -127.8072 111° Southeast 488 562 39,000  Level FlightAware Transoceanic
14:30 40.3410 -127.6453 111° Southeast 488 562 39,000  Level FlightAware Transoceanic
14:31 40.2936 -127.4836 111° Southeast 488 562 39,000  Level FlightAware Transoceanic
14:31 40.2986 -127.4908 110° East 492 566 39,000  Level Oakland Center
14:32 40.2460 -127.3222 111° Southeast 488 562 39,000  Level FlightAware Transoceanic
14:32 40.2506 -127.3236 111° Southeast 493 567 39,000  Level Oakland Center
14:33 40.1981 -127.1610 111° Southeast 488 562 39,000  Level FlightAware Transoceanic
14:33 40.1997 -127.1561 112° Southeast 495 570 39,000  Level Oakland Center
14:34 40.1500 -127.0000 110° East 488 562 39,000  Level FlightAware Transoceanic
14:34 40.1364 -126.9539 112° Southeast 498 573 39,000  Level Oakland Center
14:35 40.1026 -126.8278 110° East 488 562 39,000  Level FlightAware Transoceanic
14:36 40.0550 -126.6557 110° East 488 562 39,000  Level FlightAware Transoceanic
14:40 39.7170 -126.0660 112° Southeast 39,000  Level FlightAware
14:40 39.6630 -125.9530 122° Southeast 492 566 39,000  Level FlightAware
14:41 39.6110 -125.8490 123° Southeast 492 566 39,000  Level FlightAware
14:42 39.5620 -125.7460 122° Southeast 493 567 39,000  Level FlightAware
14:42 39.5260 -125.6680 121° Southeast 493 567 39,000  Level FlightAware
14:43 39.4570 -125.5330 123° Southeast 493 567 39,000  Level FlightAware
14:44 39.3740 -125.3690 123° Southeast 495 570 39,000  Level FlightAware
14:45 39.3330 -125.2870 123° Southeast 495 570 39,000  Level FlightAware
14:45 39.2920 -125.2040 123° Southeast 494 568 39,000  Level FlightAware
14:46 39.2450 -125.1100 123° Southeast 494 568 39,000  Level FlightAware
14:47 39.2030 -125.0280 123° Southeast 494 568 39,000  Level FlightAware
14:47 39.1570 -124.9350 123° Southeast 495 570 39,000  Level FlightAware
14:48 39.1190 -124.8600 123° Southeast 495 570 39,000  Level FlightAware
14:48 39.0710 -124.7660 123° Southeast 495 570 39,000  Level FlightAware
14:49 39.0260 -124.6770 123° Southeast 495 570 39,000  Level FlightAware
14:49 38.9840 -124.5940 123° Southeast 495 570 39,000  Level FlightAware
14:50 38.9390 -124.5060 123° Southeast 495 570 39,000  Level FlightAware
14:51 38.8980 -124.4260 123° Southeast 495 570 39,000 -660 Level FlightAware
14:51 38.8530 -124.3380 123° Southeast 485 558 38,300 -1,800 Descending FlightAware
14:52 38.8120 -124.2580 123° Southeast 486 559 36,900 -2,760 Descending FlightAware
14:52 38.7620 -124.1610 123° Southeast 490 564 35,000 -2,880 Descending FlightAware
14:53 38.7210 -124.0830 124° Southeast 493 567 33,500 -2,580 Descending FlightAware
14:54 38.6770 -123.9970 123° Southeast 486 559 32,100 -2,280 Descending FlightAware
14:54 38.6320 -123.9110 124° Southeast 478 550 30,800 -2,100 Descending FlightAware
14:55 38.5890 -123.8290 124° Southeast 469 540 29,600 -2,040 Descending FlightAware
14:55 38.5500 -123.7550 124° Southeast 461 531 28,500 -2,040 Descending FlightAware
14:56 38.5080 -123.6740 124° Southeast 453 521 27,300 -1,980 Descending FlightAware
14:56 38.4690 -123.5990 124° Southeast 446 513 26,200 -1,920 Descending FlightAware
14:57 38.4280 -123.5220 124° Southeast 438 504 25,100 -1,920 Descending FlightAware
14:58 38.3900 -123.4500 124° Southeast 431 496 24,000 -1,980 Descending FlightAware
14:58 38.3560 -123.3860 124° Southeast 425 489 23,000 -1,920 Descending FlightAware
14:59 38.3170 -123.3110 124° Southeast 417 480 21,900 -1,860 Descending FlightAware
14:59 38.2760 -123.2340 124° Southeast 410 472 20,700 -1,860 Descending FlightAware
15:00 38.2400 -123.1660 124° Southeast 401 461 19,700 -1,920 Descending FlightAware
15:01 38.2020 -123.0970 125° Southeast 396 456 18,500 -2,040 Descending FlightAware
15:01 38.1660 -123.0290 124° Southeast 393 452 17,300 -1,920 Descending FlightAware
15:02 38.1300 -122.9620 124° Southeast 386 444 16,200 -1,980 Descending FlightAware
15:02 38.0970 -122.9010 124° Southeast 381 438 15,100 -1,980 Descending FlightAware
15:03 38.0560 -122.8420 131° Southeast 371 427 14,000 -1,800 Descending FlightAware
15:03 38.0130 -122.7940 139° Southeast 366 421 13,000 -1,860 Descending FlightAware
15:04 37.9690 -122.7480 140° Southeast 360 414 11,900 -1,620 Descending FlightAware
15:05 37.9180 -122.6940 140° Southeast 345 397 11,100 -840 Descending FlightAware
15:05 37.8800 -122.6520 139° Southeast 319 367 10,900 -180 Descending FlightAware
15:06 37.8320 -122.6010 140° Southeast 345 397 10,900  Level FlightAware ADS-B
15:07 37.7725 -122.5370 140° Southeast 346 398 10,900  Level FlightAware ADS-B
15:07 37.7232 -122.4840 140° Southeast 344 396 10,900  Level FlightAware ADS-B
15:08 37.6735 -122.4310 140° Southeast 319 367 10,900  Level FlightAware ADS-B
15:09 37.6423 -122.3980 140° Southeast 273 314 10,900  Level FlightAware ADS-B
15:09 37.6139 -122.3680 140° Southeast 255 293 10,900 -300 Level FlightAware ADS-B
15:09 37.6030 -122.3590 147° Southeast 250 288 10,700 -1,200 Descending FlightAware ADS-B
15:10 37.5723 -122.3380 152° Southeast 249 287 10,100 -1,200 Descending FlightAware ADS-B
15:10 37.5566 -122.3290 156° South 250 288 9,800 -1,200 Descending FlightAware ADS-B
15:10 37.5406 -122.3190 154° Southeast 251 289 9,500 -1,200 Descending FlightAware ADS-B
15:11 37.5243 -122.3080 152° Southeast 250 288 9,200 -1,140 Descending FlightAware ADS-B
15:11 37.5059 -122.2970 155° Southeast 249 287 8,900 -1,080 Descending FlightAware ADS-B
15:11 37.4894 -122.2860 152° Southeast 248 285 8,600 -780 Descending FlightAware ADS-B
15:11 37.4745 -122.2770 154° Southeast 242 278 8,500 -420 Descending FlightAware ADS-B
15:12 37.4588 -122.2680 156° South 233 268 8,400 -540 Descending FlightAware ADS-B
15:12 37.4511 -122.2630 153° Southeast 226 260 8,300 -960 Descending FlightAware ADS-B
15:12 37.4467 -122.2600 152° Southeast 223 257 8,200 -780 Descending FlightAware ADS-B
15:12 37.4438 -122.2570 141° Southeast 223 257 8,200  Level FlightAware ADS-B
15:12 37.4410 -122.2540 140° Southeast 220 253 8,200 -720 Level FlightAware ADS-B
15:12 37.4378 -122.2490 129° Southeast 218 251 8,100 -720 Descending FlightAware ADS-B
15:12 37.4356 -122.2450 125° Southeast 216 249 8,100 -540 Level FlightAware ADS-B
15:12 37.4321 -122.2360 116° Southeast 213 245 8,000 -1,080 Descending FlightAware ADS-B
15:13 37.4260 -122.2190 114° Southeast 211 243 7,700 -1,200 Descending FlightAware ADS-B
15:13 37.4198 -122.2020 115° Southeast 210 242 7,400 -1,140 Descending FlightAware ADS-B
15:13 37.4150 -122.1890 115° Southeast 209 241 7,200 -1,140 Descending FlightAware ADS-B
15:13 37.4088 -122.1710 113° Southeast 209 241 6,900 -1,080 Descending FlightAware ADS-B
15:13 37.4041 -122.1580 114° Southeast 209 241 6,700 -1,200 Descending FlightAware ADS-B
15:13 37.4029 -122.1540 111° Southeast 209 241 6,600 -1,740 Descending FlightAware ADS-B
15:14 37.4020 -122.1500 106° East 209 241 6,500 -1,500 Descending FlightAware ADS-B
15:14 37.4016 -122.1450 96° East 209 241 6,400 -1,500 Descending FlightAware ADS-B
15:14 37.4017 -122.1410 88° East 208 239 6,300 -780 Descending FlightAware ADS-B
15:14 37.4025 -122.1360 79° East 207 238 6,300 -900 Level FlightAware ADS-B
15:14 37.4036 -122.1320 71° East 205 236 6,200 -1,740 Descending FlightAware ADS-B
15:14 37.4052 -122.1280 63° Northeast 204 235 6,100 -1,740 Descending FlightAware ADS-B
15:14 37.4073 -122.1250 49° Northeast 203 234 6,000 -900 Descending FlightAware ADS-B
15:14 37.4094 -122.1220 49° Northeast 202 232 6,000 -900 Level FlightAware ADS-B
15:14 37.4116 -122.1200 36° Northeast 201 231 5,900 -2,040 Descending FlightAware ADS-B
15:14 37.4145 -122.1180 29° Northeast 200 230 5,800 -1,200 Descending FlightAware ADS-B
15:14 37.4195 -122.1140 32° Northeast 200 230 5,700 -1,200 Descending FlightAware ADS-B
15:14 37.4303 -122.1070 27° Northeast 203 234 5,400 -1,320 Descending FlightAware ADS-B
15:15 37.4429 -122.0990 27° Northeast 204 235 5,100 -1,200 Descending FlightAware ADS-B
15:15 37.4479 -122.0960 25° Northeast 203 234 5,000 -1,020 Descending FlightAware ADS-B
15:15 37.4542 -122.0940 14° North 199 229 4,900 -1,140 Descending FlightAware ADS-B
15:15 37.4573 -122.0940 360° North 198 228 4,800 -900 Descending FlightAware ADS-B
15:15 37.4602 -122.0950 345° North 196 226 4,800 -1,020 Level FlightAware ADS-B
15:15 37.4627 -122.0960 342° North 194 223 4,700 -1,020 Descending FlightAware ADS-B
15:15 37.4657 -122.0970 345° North 192 221 4,700 -780 Level FlightAware ADS-B
15:15 37.4692 -122.0990 336° Northwest 190 219 4,600 -1,020 Descending FlightAware ADS-B
15:15 37.4786 -122.1070 326° Northwest 190 219 4,400 -1,020 Descending FlightAware ADS-B
15:16 37.4955 -122.1220 325° Northwest 190 219 4,000 -1,080 Descending FlightAware ADS-B
15:16 37.5066 -122.1310 327° Northwest 188 216 3,700 -600 Descending FlightAware ADS-B
15:16 37.5175 -122.1410 324° Northwest 189 217 3,700 -300 Level FlightAware ADS-B
15:16 37.5211 -122.1440 327° Northwest 189 217 3,600 -1,380 Descending FlightAware ADS-B
15:16 37.5237 -122.1470 318° Northwest 189 217 3,500 -900 Descending FlightAware ADS-B
15:16 37.5257 -122.1500 310° West 189 217 3,500 -900 Level FlightAware ADS-B
15:17 37.5275 -122.1530 307° West 190 219 3,400 -1,500 Descending FlightAware ADS-B
15:17 37.5293 -122.1570 300° West 191 220 3,300 -1,620 Descending FlightAware ADS-B
15:17 37.5358 -122.1720 299° West 195 224 2,900 -1,440 Descending FlightAware ADS-B
15:17 37.5422 -122.1870 298° West 183 211 2,600 -780 Descending FlightAware ADS-B
15:17 37.5480 -122.2010 298° West 168 193 2,500 -480 Descending FlightAware ADS-B
15:18 37.5520 -122.2110 297° West 167 192 2,400 -720 Descending FlightAware ADS-B
15:18 37.5573 -122.2240 297° West 167 192 2,200 -840 Descending FlightAware ADS-B
15:18 37.5628 -122.2370 298° West 163 188 2,000 -900 Descending FlightAware ADS-B
15:18 37.5669 -122.2470 297° West 161 185 1,800 -720 Descending FlightAware ADS-B
15:19 37.5722 -122.2590 299° West 152 175 1,700 -660 Descending FlightAware ADS-B
15:19 37.5765 -122.2690 298° West 140 161 1,500 -900 Descending FlightAware ADS-B
15:19 37.5810 -122.2800 297° West 138 159 1,300 -840 Descending FlightAware ADS-B
15:19 37.5855 -122.2910 297° West 138 159 1,100 -720 Descending FlightAware ADS-B
15:20 37.5915 -122.3050 298° West 135 155 900 -660 Descending FlightAware ADS-B
15:20 37.5989 -122.3220 299° West 132 152 600 -840 Descending FlightAware ADS-B
15:20 37.6023 -122.3310 295° West 128 147 400 -720 Descending FlightAware ADS-B
15:20 37.6036 -122.3340 299° West 130 150 400 -840 Level FlightAware ADS-B
15:20 37.6064 -122.3410 297° West 128 147 200 -960 Descending FlightAware ADS-B
15:21 37.6089 -122.3460 302° West 128 147 100 -780 Descending FlightAware ADS-B
15:21 37.6161 -122.3630 298° West 120 138 -240 Descending FlightAware ADS-B